Time;durP1;ratioP1;P1;durP2;ratioP2;P2;SDS_P1;SDS_P2;PMS_P1;PMS_P2;Temp;Humidity;BMP_temperature;BMP_pressure;BME280_temperature;BME280_humidity;BME280_pressure;Samples;Min_cycle;Max_cycle;Signal;HPM_P1;HPM_P2
2023/04/18 00:00:00;;;;;;;14.85;8.20;;;7.80;98.80;;;;;;5130291;27;20097;-81
2023/04/18 00:02:32;;;;;;;10.85;7.18;;;7.90;98.30;;;;;;5095091;28;20079;-81
2023/04/18 00:04:58;;;;;;;9.75;7.60;;;7.80;98.80;;;;;;5095141;28;20053;-81
2023/04/18 00:07:24;;;;;;;15.60;9.15;;;8.00;98.80;;;;;;5112297;27;20708;-79
2023/04/18 00:09:50;;;;;;;14.52;9.98;;;7.70;99.10;;;;;;5129581;27;20086;-79
2023/04/18 00:12:19;;;;;;;10.77;8.77;;;7.60;99.50;;;;;;5130498;28;20105;-81
2023/04/18 00:14:53;;;;;;;14.32;8.63;;;7.50;99.80;;;;;;5130152;28;20062;-81
2023/04/18 00:17:20;;;;;;;11.48;8.57;;;7.50;99.90;;;;;;5093007;28;20101;-80
2023/04/18 00:19:46;;;;;;;17.17;10.10;;;7.50;99.90;;;;;;5112443;28;20103;-81
2023/04/18 00:22:16;;;;;;;14.98;10.23;;;7.40;99.90;;;;;;5094755;28;20165;-81
2023/04/18 00:24:55;;;;;;;13.27;10.23;;;7.10;99.90;;;;;;5096600;28;20057;-80
2023/04/18 00:27:37;;;;;;;12.07;8.45;;;7.00;99.90;;;;;;5130342;28;20112;-78
2023/04/18 00:30:04;;;;;;;13.60;10.40;;;7.10;99.90;;;;;;5079866;28;20050;-79
2023/04/18 00:32:38;;;;;;;8.70;6.50;;;7.10;99.90;;;;;;5077588;28;20108;-80
2023/04/18 00:35:18;;;;;;;13.10;9.77;;;7.30;99.90;;;;;;5113586;28;20050;-81
2023/04/18 00:37:44;;;;;;;8.35;5.80;;;7.20;99.90;;;;;;5111959;28;20047;-80
2023/04/18 00:40:10;;;;;;;12.82;8.32;;;7.20;99.90;;;;;;5130076;28;20140;-79
2023/04/18 00:42:36;;;;;;;12.73;8.55;;;7.20;99.90;;;;;;5111853;28;20047;-81
2023/04/18 00:45:01;;;;;;;14.25;9.50;;;7.10;99.90;;;;;;5094468;28;20057;-79
2023/04/18 00:47:38;;;;;;;9.68;6.57;;;7.10;99.90;;;;;;5096298;28;20814;-80
2023/04/18 00:50:07;;;;;;;12.73;8.77;;;6.40;99.90;;;;;;5104338;28;20035;-80
2023/04/18 00:52:43;;;;;;;12.32;9.07;;;7.20;99.90;;;;;;5091797;28;20054;-81
2023/04/18 00:55:34;;;;;;;11.93;8.70;;;6.70;99.90;;;;;;5093212;28;20100;-81
2023/04/18 00:58:20;;;;;;;13.25;8.50;;;7.10;99.90;;;;;;5068114;28;20539;-80
2023/04/18 01:01:00;;;;;;;5.32;4.57;;;7.30;99.90;;;;;;5077398;28;20099;-80
2023/04/18 01:03:34;;;;;;;12.02;9.38;;;7.10;99.90;;;;;;5090459;28;20206;-79
2023/04/18 01:06:02;;;;;;;11.95;9.02;;;7.00;99.90;;;;;;5094547;28;20055;-81
2023/04/18 01:08:42;;;;;;;13.23;8.50;;;6.90;99.90;;;;;;5049493;28;20615;-81
2023/04/18 01:11:09;;;;;;;8.48;6.90;;;6.90;99.90;;;;;;5077307;28;20104;-80
2023/04/18 01:13:36;;;;;;;11.27;8.02;;;6.80;99.90;;;;;;5061081;28;20100;-81
2023/04/18 01:16:03;;;;;;;11.32;8.05;;;7.10;99.90;;;;;;5077658;28;20059;-80
2023/04/18 01:19:02;;;;;;;11.10;7.60;;;7.10;99.90;;;;;;5112468;28;20044;-80
2023/04/18 01:21:35;;;;;;;10.10;6.82;;;7.00;99.90;;;;;;5095002;28;20046;-80
2023/04/18 01:24:16;;;;;;;12.18;7.15;;;7.10;99.90;;;;;;5096908;28;20062;-81
2023/04/18 01:26:56;;;;;;;12.73;10.10;;;7.00;99.90;;;;;;5062051;28;20125;-80
2023/04/18 01:29:21;;;;;;;8.45;6.32;;;7.10;99.90;;;;;;5109422;28;20067;-80
2023/04/18 01:31:53;;;;;;;14.40;9.75;;;7.10;99.90;;;;;;5094092;28;20066;-80
2023/04/18 01:34:32;;;;;;;10.48;7.82;;;7.00;99.90;;;;;;5095000;28;20059;-81
2023/04/18 01:37:16;;;;;;;10.07;7.40;;;7.00;99.90;;;;;;5048946;28;20049;-80
2023/04/18 01:39:50;;;;;;;11.95;6.95;;;6.90;99.90;;;;;;5031661;28;20789;-80
2023/04/18 01:42:22;;;;;;;15.18;10.30;;;7.00;99.90;;;;;;5076194;28;20083;-81
2023/04/18 01:44:50;;;;;;;12.65;8.30;;;6.90;99.90;;;;;;5079118;28;20059;-81
2023/04/18 01:47:16;;;;;;;13.35;8.95;;;7.00;99.90;;;;;;5061389;28;20134;-80
2023/04/18 01:49:55;;;;;;;14.43;9.68;;;7.00;99.90;;;;;;5085952;28;20514;-81
2023/04/18 01:52:34;;;;;;;15.32;10.75;;;5.50;99.90;;;;;;5115766;28;20040;-81
2023/04/18 01:55:01;;;;;;;8.77;6.88;;;7.00;99.90;;;;;;5094132;28;20048;-81
2023/04/18 01:57:29;;;;;;;16.60;11.05;;;7.10;99.90;;;;;;5093383;28;20057;-80
2023/04/18 02:00:07;;;;;;;15.05;9.90;;;7.00;99.90;;;;;;5110299;28;20115;-80
2023/04/18 02:02:51;;;;;;;15.07;10.57;;;6.80;99.90;;;;;;5106717;28;20109;-80
2023/04/18 02:05:28;;;;;;;12.10;8.30;;;6.80;99.90;;;;;;5093879;28;20116;-80
2023/04/18 02:07:56;;;;;;;11.20;8.07;;;6.70;99.90;;;;;;5078233;28;20052;-80
2023/04/18 02:10:37;;;;;;;13.23;6.75;;;6.80;99.90;;;;;;5080112;28;20521;-79
2023/04/18 02:13:05;;;;;;;13.38;7.30;;;7.00;99.90;;;;;;5076876;28;20048;-79
2023/04/18 02:15:32;;;;;;;11.82;8.43;;;6.90;99.90;;;;;;5077763;28;20063;-79
2023/04/18 02:17:59;;;;;;;11.88;8.30;;;7.00;99.90;;;;;;5112249;28;20079;-80
2023/04/18 02:20:33;;;;;;;13.07;9.18;;;7.50;99.90;;;;;;5093613;28;20047;-79
2023/04/18 02:23:08;;;;;;;13.15;8.35;;;6.90;99.90;;;;;;5028502;28;20062;-80
2023/04/18 02:25:45;;;;;;;16.33;10.93;;;7.00;99.90;;;;;;5092576;28;20060;-79
2023/04/18 02:28:17;;;;;;;13.55;8.10;;;7.00;99.90;;;;;;5076773;28;20055;-81
2023/04/18 02:30:50;;;;;;;15.60;9.07;;;7.20;99.90;;;;;;5111490;28;20035;-80
2023/04/18 02:33:23;;;;;;;14.45;8.07;;;7.10;99.90;;;;;;5111372;28;20050;-80
2023/04/18 02:35:51;;;;;;;16.47;11.50;;;7.20;99.90;;;;;;5093582;28;20086;-80
2023/04/18 02:38:17;;;;;;;12.93;7.55;;;7.00;99.90;;;;;;5092735;28;20052;-78
2023/04/18 02:40:43;;;;;;;16.95;11.20;;;7.10;99.90;;;;;;5110520;28;20576;-80
2023/04/18 02:43:14;;;;;;;17.05;11.13;;;6.80;99.90;;;;;;5094150;28;20051;-80
2023/04/18 02:45:40;;;;;;;15.48;9.60;;;7.00;99.90;;;;;;5093072;28;20800;-80
2023/04/18 02:48:15;;;;;;;13.40;8.88;;;7.10;99.90;;;;;;5063251;28;20054;-81
2023/04/18 02:50:47;;;;;;;12.40;8.07;;;7.20;99.90;;;;;;5083539;28;20576;-80
2023/04/18 02:53:23;;;;;;;8.48;5.85;;;7.10;99.90;;;;;;5094139;28;20044;-81
2023/04/18 02:55:50;;;;;;;12.88;9.75;;;7.50;99.90;;;;;;5092718;28;20087;-80
2023/04/18 02:58:16;;;;;;;12.77;7.78;;;7.40;99.90;;;;;;5042538;28;20047;-81
2023/04/18 03:00:43;;;;;;;12.13;8.40;;;7.30;99.90;;;;;;5092766;28;20054;-80
2023/04/18 03:03:13;;;;;;;17.38;10.43;;;7.20;99.90;;;;;;5057971;28;20490;-80
2023/04/18 03:05:48;;;;;;;15.23;10.60;;;7.10;99.90;;;;;;5092870;28;20446;-81
2023/04/18 03:08:15;;;;;;;15.38;9.48;;;7.00;99.90;;;;;;5069100;28;20557;-81
2023/04/18 03:10:41;;;;;;;13.70;9.30;;;7.00;99.90;;;;;;5075382;28;20063;-82
2023/04/18 03:13:07;;;;;;;14.88;10.07;;;6.90;99.90;;;;;;5093096;28;20554;-81
2023/04/18 03:15:41;;;;;;;14.75;10.05;;;6.90;99.90;;;;;;5092661;28;20126;-80
2023/04/18 03:18:11;;;;;;;14.63;11.05;;;7.10;99.90;;;;;;5093733;28;20058;-81
2023/04/18 03:20:44;;;;;;;12.48;8.52;;;6.90;99.90;;;;;;5092061;28;20054;-80
2023/04/18 03:23:09;;;;;;;16.50;10.57;;;7.10;99.90;;;;;;5110083;28;20047;-81
2023/04/18 03:25:35;;;;;;;15.60;10.48;;;6.40;99.90;;;;;;5075382;28;20239;-79
2023/04/18 03:28:01;;;;;;;12.25;8.40;;;7.00;99.90;;;;;;5092395;28;20087;-79
2023/04/18 03:30:31;;;;;;;15.63;10.38;;;7.00;99.90;;;;;;5091587;28;20148;-80
2023/04/18 03:33:04;;;;;;;14.43;8.95;;;6.90;99.90;;;;;;5094285;28;20130;-81
2023/04/18 03:38:20;;;;;;;12.52;9.02;;;7.10;99.90;;;;;;5077881;28;20069;-78
2023/04/18 03:40:52;;;;;;;16.13;10.57;;;7.30;99.90;;;;;;5091577;28;20474;-80
2023/04/18 03:43:27;;;;;;;14.75;8.50;;;7.10;99.90;;;;;;5110065;28;20115;-79
2023/04/18 03:45:53;;;;;;;13.02;8.95;;;7.40;99.90;;;;;;5091928;28;20039;-79
2023/04/18 03:48:18;;;;;;;13.05;8.63;;;7.20;99.90;;;;;;5091785;28;20517;-78
2023/04/18 03:50:44;;;;;;;13.20;8.77;;;7.20;99.90;;;;;;5058189;28;20063;-78
2023/04/18 03:53:28;;;;;;;15.05;10.25;;;7.30;99.90;;;;;;5061312;28;20495;-79
2023/04/18 03:56:00;;;;;;;12.55;8.07;;;7.00;99.90;;;;;;5094247;28;20039;-80
2023/04/18 03:58:35;;;;;;;13.30;9.73;;;7.00;99.90;;;;;;5110871;28;20051;-81
2023/04/18 04:01:18;;;;;;;12.20;8.48;;;6.90;99.90;;;;;;5110099;28;20377;-78
2023/04/18 04:04:04;;;;;;;12.18;7.72;;;7.20;99.90;;;;;;5090121;28;20521;-81
2023/04/18 04:06:31;;;;;;;11.80;8.18;;;6.90;99.90;;;;;;5110109;28;20051;-81
2023/04/18 04:08:58;;;;;;;14.40;9.98;;;6.90;99.90;;;;;;5091096;28;20132;-80
2023/04/18 04:11:23;;;;;;;14.00;9.68;;;7.00;99.90;;;;;;5091023;28;20048;-80
2023/04/18 04:13:55;;;;;;;13.13;8.40;;;7.00;99.90;;;;;;5091759;28;20089;-80
2023/04/18 04:16:23;;;;;;;9.45;6.68;;;7.10;99.90;;;;;;5091941;28;20062;-81
2023/04/18 04:18:53;;;;;;;15.60;9.20;;;7.10;99.90;;;;;;5092067;28;20052;-80
2023/04/18 04:21:26;;;;;;;11.48;7.72;;;7.10;99.90;;;;;;5077180;28;20120;-79
2023/04/18 04:23:52;;;;;;;13.90;8.30;;;7.10;99.90;;;;;;5108451;28;20070;-79
2023/04/18 04:26:26;;;;;;;11.35;7.88;;;7.10;99.90;;;;;;5074096;28;20410;-79
2023/04/18 04:28:53;;;;;;;;;;;7.10;99.90;;;;;;5110774;28;20051;-80
2023/04/18 04:31:30;;;;;;;7.45;5.32;;;7.20;99.90;;;;;;5093965;28;19919;-80
2023/04/18 04:33:57;;;;;;;13.00;9.07;;;7.20;99.90;;;;;;5074920;28;20048;-79
2023/04/18 04:36:26;;;;;;;12.00;6.43;;;7.30;99.90;;;;;;5094866;28;20078;-81
2023/04/18 04:39:02;;;;;;;12.48;7.68;;;7.10;99.90;;;;;;5095339;28;20063;-80
2023/04/18 04:41:43;;;;;;;9.48;6.53;;;7.20;99.90;;;;;;5110047;28;20056;-80
2023/04/18 04:44:09;;;;;;;11.95;8.48;;;7.10;99.90;;;;;;5093095;28;20068;-81
2023/04/18 04:46:39;;;;;;;14.95;9.07;;;7.20;99.90;;;;;;5094984;28;20398;-81
2023/04/18 04:49:08;;;;;;;8.82;6.40;;;7.20;99.90;;;;;;5095227;28;20043;-80
2023/04/18 04:51:38;;;;;;;13.20;9.70;;;7.30;99.90;;;;;;5078213;28;20176;-80
2023/04/18 04:54:06;;;;;;;12.77;8.82;;;7.20;99.90;;;;;;5094587;28;20060;-79
2023/04/18 04:56:35;;;;;;;14.40;9.30;;;7.20;99.90;;;;;;5111995;28;20429;-80
2023/04/18 04:59:02;;;;;;;11.50;7.60;;;7.20;99.90;;;;;;5094574;28;20059;-80
2023/04/18 05:01:48;;;;;;;10.40;8.38;;;7.30;99.90;;;;;;5097307;28;20047;-81
2023/04/18 05:04:41;;;;;;;12.13;7.50;;;7.30;99.90;;;;;;5109789;28;20082;-79
2023/04/18 05:07:16;;;;;;;9.95;6.15;;;7.30;99.90;;;;;;5111787;28;20063;-81
2023/04/18 05:09:53;;;;;;;13.15;8.38;;;7.30;99.90;;;;;;5111615;28;20090;-80
2023/04/18 05:12:19;;;;;;;10.70;8.43;;;7.30;99.90;;;;;;5113201;28;20055;-80
2023/04/18 05:14:50;;;;;;;11.50;8.23;;;7.40;99.90;;;;;;5111660;28;20861;-79
2023/04/18 05:17:29;;;;;;;9.95;7.47;;;7.30;99.90;;;;;;5063559;28;20057;-80
2023/04/18 05:20:13;;;;;;;13.52;9.13;;;6.00;99.90;;;;;;5074448;28;20177;-79
2023/04/18 05:22:41;;;;;;;11.68;7.30;;;7.40;99.90;;;;;;5062894;28;20055;-79
2023/04/18 05:25:08;;;;;;;15.93;9.07;;;7.60;99.90;;;;;;5077483;28;20051;-81
2023/04/18 05:27:48;;;;;;;13.00;9.57;;;7.60;99.90;;;;;;5093514;28;20062;-80
2023/04/18 05:30:23;;;;;;;9.52;6.93;;;7.40;99.90;;;;;;5112441;28;20112;-80
2023/04/18 05:32:50;;;;;;;10.82;7.53;;;7.30;99.90;;;;;;5094207;28;20135;-81
2023/04/18 05:35:16;;;;;;;14.32;8.65;;;7.40;99.90;;;;;;5060420;28;20059;-80
2023/04/18 05:37:42;;;;;;;9.45;6.63;;;7.50;99.90;;;;;;5094430;28;20043;-80
2023/04/18 05:40:11;;;;;;;12.07;7.35;;;7.50;99.90;;;;;;5076314;28;20044;-82
2023/04/18 05:42:45;;;;;;;15.13;9.57;;;7.60;99.90;;;;;;5094931;28;20050;-80
2023/04/18 05:45:13;;;;;;;14.88;10.85;;;7.50;99.90;;;;;;5112020;28;20051;-80
2023/04/18 05:47:39;;;;;;;14.82;11.25;;;7.50;99.90;;;;;;5076653;28;20051;-80
2023/04/18 05:50:06;;;;;;;9.23;6.75;;;7.40;99.90;;;;;;5060566;28;20142;-79
2023/04/18 05:52:32;;;;;;;11.15;7.95;;;7.60;99.90;;;;;;5112659;28;20117;-81
2023/04/18 05:54:57;;;;;;;14.95;10.48;;;7.70;99.90;;;;;;5076952;28;20048;-79
2023/04/18 05:57:24;;;;;;;10.60;7.20;;;7.70;99.90;;;;;;5076821;28;20054;-80
2023/04/18 06:00:12;;;;;;;15.70;11.10;;;7.80;99.90;;;;;;5094758;28;20047;-81
2023/04/18 06:02:38;;;;;;;14.57;11.07;;;7.70;99.90;;;;;;5093880;28;20047;-80
2023/04/18 06:05:05;;;;;;;13.65;10.32;;;7.80;99.90;;;;;;5111648;28;20059;-81
2023/04/18 06:07:36;;;;;;;16.23;11.35;;;7.70;99.90;;;;;;5091981;28;20142;-79
2023/04/18 06:10:02;;;;;;;9.05;5.90;;;7.70;99.90;;;;;;5074838;28;20059;-80
2023/04/18 06:12:54;;;;;;;14.57;11.23;;;8.00;99.90;;;;;;5059559;28;20063;-81
2023/04/18 06:15:33;;;;;;;14.18;9.52;;;8.00;99.90;;;;;;5092114;28;20062;-79
2023/04/18 06:18:00;;;;;;;15.77;11.25;;;7.90;99.90;;;;;;5109327;28;20051;-80
2023/04/18 06:20:50;;;;;;;15.32;10.43;;;8.00;99.90;;;;;;5065587;27;20052;-79
2023/04/18 06:23:31;;;;;;;15.30;11.52;;;8.20;99.90;;;;;;5097390;27;20588;-79
2023/04/18 06:26:08;;;;;;;13.20;9.27;;;8.10;99.90;;;;;;5117546;27;20130;-80
2023/04/18 06:28:34;;;;;;;13.88;9.73;;;8.30;99.90;;;;;;5113852;27;20067;-83
2023/04/18 06:31:00;;;;;;;14.32;10.35;;;8.60;99.90;;;;;;5068738;28;20199;-83
2023/04/18 06:33:26;;;;;;;15.27;11.10;;;8.30;99.90;;;;;;5069816;27;20085;-84
2023/04/18 06:35:53;;;;;;;11.52;6.82;;;8.60;99.90;;;;;;5103039;27;20039;-80
2023/04/18 06:38:54;;;;;;;13.20;8.95;;;8.70;99.90;;;;;;5116678;27;20094;-78
2023/04/18 06:41:39;;;;;;;11.15;8.63;;;8.60;99.90;;;;;;5100140;28;20058;-77
2023/04/18 06:47:39;;;;;;;12.60;9.00;;;8.60;99.90;;;;;;5100198;27;20047;-81
2023/04/18 06:51:08;;;;;;;12.48;9.50;;;8.90;99.90;;;;;;5035742;28;20049;-81
2023/04/18 06:53:36;;;;;;;9.27;7.55;;;8.70;99.90;;;;;;5025644;28;20041;-84
2023/04/18 06:56:02;;;;;;;8.68;6.32;;;9.00;99.90;;;;;;5004044;28;20064;-83
2023/04/18 06:58:34;;;;;;;11.98;9.02;;;9.20;99.80;;;;;;5026994;28;20065;-83
2023/04/18 07:00:59;;;;;;;9.90;6.97;;;8.80;99.90;;;;;;5031078;27;20058;-85
2023/04/18 07:03:26;;;;;;;13.60;9.55;;;8.90;99.90;;;;;;5085538;27;20602;-84
2023/04/18 07:06:19;;;;;;;13.88;9.57;;;9.00;99.90;;;;;;5121451;27;20135;-80
2023/04/18 07:08:45;;;;;;;12.52;10.00;;;8.90;99.90;;;;;;5103800;27;20482;-82
2023/04/18 07:11:17;;;;;;;12.00;7.43;;;8.70;99.90;;;;;;5097486;27;20050;-80
2023/04/18 07:17:51;;;;;;;15.77;9.00;;;9.20;99.30;;;;;;5111894;27;20054;-79
2023/04/18 07:20:23;;;;;;;12.97;9.30;;;8.90;99.60;;;;;;5113638;27;20059;-80
2023/04/18 07:22:56;;;;;;;10.98;5.55;;;9.20;99.90;;;;;;5100984;27;20050;-80
2023/04/18 07:25:26;;;;;;;12.15;8.35;;;9.50;98.80;;;;;;5100041;27;20151;-78
2023/04/18 07:28:27;;;;;;;9.67;7.50;;;9.70;99.10;;;;;;5087374;28;20088;-79
2023/04/18 07:31:27;;;;;;;11.10;7.32;;;9.60;98.10;;;;;;5087715;28;20281;-79
2023/04/18 07:34:08;;;;;;;14.13;8.93;;;9.80;98.60;;;;;;5103119;28;20105;-81
2023/04/18 07:36:55;;;;;;;8.85;6.78;;;9.90;98.10;;;;;;5087582;28;20062;-77
2023/04/18 07:40:03;;;;;;;11.18;7.30;;;9.90;97.40;;;;;;5088318;28;20060;-79
2023/04/18 07:42:35;;;;;;;8.80;6.38;;;10.30;97.10;;;;;;5071692;28;20051;-81
2023/04/18 07:45:28;;;;;;;14.60;9.13;;;11.20;95.80;;;;;;5074671;28;20540;-81
2023/04/18 07:48:21;;;;;;;9.40;6.57;;;11.20;94.60;;;;;;5095614;28;20419;-82
2023/04/18 07:51:05;;;;;;;8.77;6.53;;;12.50;94.10;;;;;;5089754;28;20077;-84
2023/04/18 07:53:31;;;;;;;13.68;8.07;;;13.20;92.30;;;;;;5098593;28;20052;-81
2023/04/18 07:56:02;;;;;;;8.30;5.90;;;12.70;92.20;;;;;;5089362;28;20054;-81
2023/04/18 07:58:28;;;;;;;8.45;7.10;;;14.00;91.40;;;;;;5079824;28;20047;-81
2023/04/18 08:00:58;;;;;;;8.30;6.93;;;13.50;90.80;;;;;;5070616;28;20104;-81
2023/04/18 08:03:26;;;;;;;10.27;7.60;;;13.60;91.30;;;;;;5094709;28;20056;-81
2023/04/18 08:05:52;;;;;;;7.10;5.38;;;13.30;92.00;;;;;;5075555;28;20059;-82
2023/04/18 08:08:24;;;;;;;8.18;7.15;;;13.40;91.70;;;;;;5067426;28;20051;-80
2023/04/18 08:10:50;;;;;;;10.43;7.07;;;13.50;91.30;;;;;;5094318;28;20040;-83
2023/04/18 08:13:16;;;;;;;9.50;6.30;;;13.50;91.90;;;;;;5079206;28;20812;-82
2023/04/18 08:15:43;;;;;;;8.70;6.20;;;13.10;91.90;;;;;;5067431;28;20487;-84
2023/04/18 08:18:11;;;;;;;10.70;7.10;;;12.30;92.80;;;;;;5095174;28;20510;-82
2023/04/18 08:20:53;;;;;;;8.52;6.80;;;12.40;93.10;;;;;;5104363;28;20121;-82
2023/04/18 08:23:23;;;;;;;7.57;6.47;;;11.70;93.50;;;;;;5101341;28;20060;-83
2023/04/18 08:25:49;;;;;;;7.68;5.63;;;11.80;94.20;;;;;;5098051;28;20048;-86
2023/04/18 08:28:15;;;;;;;8.07;6.57;;;12.10;93.80;;;;;;5051966;28;20134;-84
2023/04/18 08:30:42;;;;;;;8.38;7.10;;;11.60;94.70;;;;;;5100077;28;20150;-82
2023/04/18 08:33:15;;;;;;;7.70;6.50;;;11.50;95.70;;;;;;5084031;28;20132;-82
2023/04/18 08:36:06;;;;;;;12.93;7.45;;;11.60;95.20;;;;;;5118032;28;20047;-82
2023/04/18 08:38:32;;;;;;;8.45;6.53;;;12.50;94.60;;;;;;5086381;28;20489;-85
2023/04/18 08:41:04;;;;;;;7.53;6.03;;;13.30;93.60;;;;;;5084523;28;20042;-81
2023/04/18 08:43:30;;;;;;;7.68;6.60;;;13.10;92.60;;;;;;5083698;28;20042;-83
2023/04/18 08:45:59;;;;;;;9.25;6.72;;;13.50;93.00;;;;;;5074478;28;20051;-82
2023/04/18 08:48:46;;;;;;;7.22;6.28;;;13.60;92.10;;;;;;5071752;28;20139;-81
2023/04/18 08:51:13;;;;;;;8.65;6.40;;;13.90;91.50;;;;;;5074245;28;20083;-80
2023/04/18 08:53:49;;;;;;;8.23;7.03;;;14.40;92.10;;;;;;5082132;28;20115;-81
2023/04/18 08:56:16;;;;;;;7.15;6.45;;;14.30;91.30;;;;;;5118150;28;20071;-81
2023/04/18 08:58:43;;;;;;;8.10;6.78;;;14.40;90.80;;;;;;5095785;28;20120;-80
2023/04/18 09:01:20;;;;;;;8.43;6.72;;;14.60;91.00;;;;;;5099910;28;20134;-80
2023/04/18 09:03:53;;;;;;;7.38;6.65;;;14.90;91.20;;;;;;5126511;28;20054;-80
2023/04/18 09:06:29;;;;;;;7.93;6.57;;;14.40;92.10;;;;;;5093334;28;20062;-81
2023/04/18 09:09:03;;;;;;;7.10;6.40;;;14.20;92.00;;;;;;5089249;28;20064;-82
2023/04/18 09:11:30;;;;;;;9.23;7.20;;;14.20;91.70;;;;;;5108877;28;20123;-84
2023/04/18 09:14:12;;;;;;;7.95;6.95;;;14.80;91.70;;;;;;5091314;28;20071;-80
2023/04/18 09:17:01;;;;;;;7.82;6.57;;;14.80;91.70;;;;;;5076225;28;20063;-83
2023/04/18 09:19:53;;;;;;;7.43;6.50;;;14.70;90.40;;;;;;5106500;28;20052;-84
2023/04/18 09:22:19;;;;;;;7.57;6.88;;;14.70;91.10;;;;;;5111517;28;20055;-84
2023/04/18 09:25:13;;;;;;;9.30;7.00;;;14.90;90.10;;;;;;5111073;28;20043;-81
2023/04/18 09:27:38;;;;;;;8.98;7.10;;;15.00;91.40;;;;;;5111064;28;20049;-82
2023/04/18 09:30:12;;;;;;;9.07;6.50;;;14.70;91.50;;;;;;5076174;28;20051;-82
2023/04/18 09:32:44;;;;;;;7.75;5.35;;;15.30;91.30;;;;;;5094393;28;20046;-80
2023/04/18 09:35:10;;;;;;;7.28;6.57;;;16.00;88.80;;;;;;5077110;27;20091;-81
2023/04/18 09:37:36;;;;;;;7.03;5.50;;;15.80;90.40;;;;;;5087906;27;20086;-81
2023/04/18 09:40:22;;;;;;;10.70;6.75;;;15.30;90.00;;;;;;5121001;27;20044;-80
2023/04/18 09:42:53;;;;;;;8.65;7.25;;;14.90;89.80;;;;;;5098437;28;20083;-83
2023/04/18 09:45:19;;;;;;;7.78;6.30;;;15.10;90.40;;;;;;5094998;28;20059;-88
2023/04/18 09:47:45;;;;;;;7.70;6.25;;;15.20;90.00;;;;;;5077231;28;20078;-85
2023/04/18 09:50:10;;;;;;;8.05;6.85;;;13.90;90.50;;;;;;5092565;27;20069;-86
2023/04/18 09:52:39;;;;;;;8.13;6.93;;;15.70;90.80;;;;;;5097440;27;20054;-87
2023/04/18 09:55:06;;;;;;;7.68;6.45;;;15.60;88.90;;;;;;5097934;27;20055;-83
2023/04/18 09:57:36;;;;;;;6.72;5.50;;;15.60;89.50;;;;;;5098021;27;20490;-80
2023/04/18 10:00:22;;;;;;;8.68;6.25;;;15.40;88.50;;;;;;5080706;27;20112;-84
2023/04/18 10:02:49;;;;;;;11.07;6.82;;;15.00;88.60;;;;;;5111219;27;20475;-82
2023/04/18 10:05:15;;;;;;;7.30;6.18;;;15.10;90.30;;;;;;5083913;27;20059;-84
2023/04/18 10:07:45;;;;;;;7.25;6.40;;;15.70;87.80;;;;;;5067298;27;20055;-83
2023/04/18 10:10:17;;;;;;;6.95;6.25;;;15.40;89.80;;;;;;5097579;27;20070;-82
2023/04/18 10:12:46;;;;;;;3.80;3.40;;;15.30;89.50;;;;;;5122810;27;20055;-83
2023/04/18 10:15:14;;;;;;;8.27;5.13;;;15.40;88.60;;;;;;5090124;27;20047;-83
2023/04/18 10:17:56;;;;;;;6.10;4.15;;;15.90;89.00;;;;;;5071968;27;20525;-82
2023/04/18 10:20:31;;;;;;;8.07;6.65;;;16.70;85.70;;;;;;5104796;27;20051;-82
2023/04/18 10:22:58;;;;;;;8.10;6.78;;;16.20;86.80;;;;;;5121730;27;20048;-83
2023/04/18 10:25:40;;;;;;;6.72;4.75;;;16.00;89.70;;;;;;5085601;27;20043;-84
2023/04/18 10:28:06;;;;;;;7.75;6.60;;;15.80;87.80;;;;;;5121740;27;20087;-83
2023/04/18 10:31:01;;;;;;;8.00;6.55;;;15.50;87.80;;;;;;5086254;27;20112;-84
2023/04/18 10:33:36;;;;;;;11.13;6.13;;;15.20;89.20;;;;;;5109800;27;20047;-83
2023/04/18 10:36:04;;;;;;;8.73;7.82;;;16.10;86.80;;;;;;5101238;27;20051;-83
2023/04/18 10:38:31;;;;;;;11.13;8.40;;;15.60;87.80;;;;;;5082420;27;20061;-84
2023/04/18 10:41:16;;;;;;;10.32;8.32;;;15.30;88.60;;;;;;5080672;27;20047;-82
2023/04/18 10:44:13;;;;;;;9.68;7.10;;;15.20;88.80;;;;;;5101043;27;20051;-82
2023/04/18 10:47:02;;;;;;;12.55;8.43;;;15.30;87.60;;;;;;5103323;27;20039;-81
2023/04/18 10:49:31;;;;;;;10.70;8.13;;;15.50;87.90;;;;;;5093130;27;20057;-81
2023/04/18 10:52:07;;;;;;;8.70;5.35;;;15.50;89.30;;;;;;5115907;27;20058;-81
2023/04/18 10:54:54;;;;;;;11.85;8.90;;;15.60;89.60;;;;;;5114766;27;20130;-80
2023/04/18 10:57:19;;;;;;;8.73;6.30;;;15.20;90.30;;;;;;5131581;27;20145;-81
2023/04/18 10:59:50;;;;;;;13.55;7.55;;;15.70;89.00;;;;;;5097770;27;20506;-83
2023/04/18 11:02:29;;;;;;;9.57;7.88;;;15.30;89.30;;;;;;5100236;27;20043;-81
2023/04/18 11:04:56;;;;;;;10.65;8.30;;;15.40;88.50;;;;;;5133875;27;20059;-84
2023/04/18 11:07:45;;;;;;;9.13;7.93;;;15.30;87.30;;;;;;5113451;27;20051;-82
2023/04/18 11:10:11;;;;;;;12.30;9.10;;;15.40;88.60;;;;;;5115902;27;20059;-80
2023/04/18 11:12:39;;;;;;;12.13;9.02;;;14.90;89.30;;;;;;5096765;27;20051;-82
2023/04/18 11:15:25;;;;;;;10.43;8.63;;;14.40;90.70;;;;;;5095669;27;20170;-81
2023/04/18 11:18:01;;;;;;;9.80;8.10;;;15.20;90.30;;;;;;5112709;27;20411;-80
2023/04/18 11:20:28;;;;;;;12.18;7.47;;;14.80;90.00;;;;;;5131704;27;20141;-82
2023/04/18 11:22:58;;;;;;;9.98;6.95;;;15.10;90.10;;;;;;5079824;27;20046;-82
2023/04/18 11:25:35;;;;;;;9.63;8.38;;;14.80;91.10;;;;;;5113808;27;20050;-81
2023/04/18 11:28:02;;;;;;;8.90;8.00;;;14.80;89.40;;;;;;5083143;27;20059;-81
2023/04/18 11:30:35;;;;;;;11.75;9.00;;;14.20;90.40;;;;;;5100836;27;20046;-83
2023/04/18 11:33:06;;;;;;;13.57;7.32;;;14.30;90.50;;;;;;5086015;27;20046;-83
2023/04/18 11:35:36;;;;;;;11.60;8.35;;;14.50;90.90;;;;;;5086982;27;20875;-82
2023/04/18 11:38:01;;;;;;;11.85;9.07;;;14.60;90.50;;;;;;5050087;27;20059;-83
2023/04/18 11:40:27;;;;;;;7.88;6.90;;;14.10;90.00;;;;;;5086299;27;20061;-84
2023/04/18 11:42:53;;;;;;;10.73;8.65;;;14.50;90.20;;;;;;5119388;27;20048;-82
2023/04/18 11:45:19;;;;;;;9.57;8.32;;;14.50;90.80;;;;;;5064796;28;20051;-83
2023/04/18 11:47:45;;;;;;;10.80;7.40;;;14.50;90.60;;;;;;5075151;28;20137;-85
2023/04/18 11:50:13;;;;;;;11.10;7.57;;;14.70;88.50;;;;;;5075391;28;20047;-80
2023/04/18 11:52:58;;;;;;;12.20;8.07;;;14.60;89.40;;;;;;5091906;28;20052;-82
2023/04/18 11:55:27;;;;;;;10.50;8.48;;;14.20;90.40;;;;;;5078418;28;20836;-82
2023/04/18 11:57:59;;;;;;;13.10;8.27;;;14.00;90.60;;;;;;5075645;28;20058;-84
2023/04/18 12:00:33;;;;;;;11.77;9.00;;;14.40;90.40;;;;;;5075702;28;20094;-83
2023/04/18 12:03:17;;;;;;;10.75;8.82;;;14.60;90.50;;;;;;5092765;28;20050;-82
2023/04/18 12:05:44;;;;;;;8.75;7.72;;;14.70;91.10;;;;;;5059393;28;20503;-82
2023/04/18 12:08:25;;;;;;;12.25;8.52;;;14.60;90.20;;;;;;5058721;28;20136;-81
2023/04/18 12:10:53;;;;;;;11.38;8.15;;;14.60;91.20;;;;;;5091030;28;20056;-81
2023/04/18 12:13:25;;;;;;;9.30;7.88;;;14.60;91.30;;;;;;5110136;28;20044;-81
2023/04/18 12:15:52;;;;;;;10.57;6.70;;;14.60;90.60;;;;;;5117957;28;20146;-80
2023/04/18 12:18:18;;;;;;;10.55;8.80;;;14.70;90.40;;;;;;5096676;28;20605;-83
2023/04/18 12:20:48;;;;;;;10.93;7.82;;;14.70;90.70;;;;;;5076955;28;20138;-84
2023/04/18 12:23:30;;;;;;;10.13;7.82;;;14.50;90.80;;;;;;5096614;28;20047;-81
2023/04/18 12:26:06;;;;;;;10.77;7.80;;;14.50;90.50;;;;;;5087666;28;20412;-80
2023/04/18 12:28:33;;;;;;;9.20;7.78;;;14.40;91.40;;;;;;5086885;28;20074;-82
2023/04/18 12:31:00;;;;;;;6.55;5.65;;;14.90;91.80;;;;;;5045184;28;20055;-83
2023/04/18 12:33:26;;;;;;;8.60;6.95;;;14.90;91.30;;;;;;5098693;28;20494;-82
2023/04/18 12:35:51;;;;;;;7.63;6.07;;;14.80;90.70;;;;;;5079425;28;20047;-81
2023/04/18 12:38:23;;;;;;;8.45;6.88;;;15.10;90.90;;;;;;5095923;28;20529;-83
2023/04/18 12:40:50;;;;;;;8.07;6.65;;;14.70;91.00;;;;;;5098220;28;20051;-82
2023/04/18 12:43:16;;;;;;;7.82;6.78;;;14.90;91.70;;;;;;5078762;28;20051;-83
2023/04/18 12:45:42;;;;;;;6.40;5.78;;;15.00;91.40;;;;;;5079343;28;20048;-83
2023/04/18 12:48:07;;;;;;;6.90;5.07;;;15.40;90.60;;;;;;5078039;28;20107;-84
2023/04/18 12:50:33;;;;;;;7.20;6.25;;;15.20;90.40;;;;;;5093360;28;20055;-82
2023/04/18 12:53:00;;;;;;;6.57;5.70;;;15.00;91.20;;;;;;5111799;28;20039;-83
2023/04/18 12:55:26;;;;;;;6.85;5.55;;;15.10;90.90;;;;;;5079181;27;20055;-81
2023/04/18 12:57:53;;;;;;;8.82;6.68;;;15.20;91.00;;;;;;5099384;27;20043;-83
2023/04/18 13:00:19;;;;;;;6.13;5.15;;;14.80;91.20;;;;;;5116158;27;20126;-82
2023/04/18 13:02:45;;;;;;;7.30;6.18;;;14.90;91.00;;;;;;5115923;27;20125;-83
2023/04/18 13:05:12;;;;;;;6.97;4.65;;;14.80;90.80;;;;;;5111777;28;20491;-83
2023/04/18 13:07:41;;;;;;;4.78;4.28;;;15.30;90.00;;;;;;5095153;28;20517;-84
2023/04/18 13:10:11;;;;;;;5.82;5.22;;;15.30;90.20;;;;;;5112618;28;20056;-81
2023/04/18 13:12:37;;;;;;;5.78;5.28;;;15.30;89.20;;;;;;5112521;28;20066;-81
2023/04/18 13:15:05;;;;;;;5.35;4.63;;;15.00;90.50;;;;;;5096925;28;20487;-82
2023/04/18 13:17:36;;;;;;;5.05;4.55;;;15.20;90.30;;;;;;5116546;28;20074;-83
2023/04/18 13:20:17;;;;;;;3.20;2.90;;;14.90;90.90;;;;;;5130298;28;20047;-84
2023/04/18 13:22:43;;;;;;;4.97;4.28;;;15.40;90.30;;;;;;5126496;28;20055;-83